Time;durP1;ratioP1;P1;durP2;ratioP2;P2;SDS_P1;SDS_P2;PMS_P1;PMS_P2;Temp;Humidity;BMP_temperature;BMP_pressure;BME280_temperature;BME280_humidity;BME280_pressure;Samples;Min_cycle;Max_cycle;Signal;HPM_P1;HPM_P2
2021/12/21 00:01:01;;;;;;;20.13;10.02;;;;;;;-0.30;98.76;102888.38;10442182;28;20029;-72
2021/12/21 00:06:01;;;;;;;28.83;13.07;;;;;;;-0.33;97.73;102879.69;10442955;28;20028;-74
2021/12/21 00:11:01;;;;;;;25.08;12.50;;;;;;;-0.36;98.03;102894.00;10459669;28;20033;-72
2021/12/21 00:22:05;;;;;;;34.15;13.32;;;;;;;-0.62;96.54;102892.66;10459253;28;20041;-72
2021/12/21 00:26:32;;;;;;;17.88;11.32;;;;;;;-0.77;95.35;102882.75;10455238;28;20053;-72
2021/12/21 00:31:34;;;;;;;22.13;9.88;;;;;;;-0.80;95.69;102888.22;10457258;28;20049;-72
2021/12/21 00:36:35;;;;;;;14.15;9.57;;;;;;;-0.89;94.83;102881.59;10457299;28;20522;-72
2021/12/21 00:41:35;;;;;;;32.78;10.43;;;;;;;-0.93;94.32;102874.66;10459384;28;20109;-72
2021/12/21 00:46:38;;;;;;;21.50;10.23;;;;;;;-0.94;94.94;102871.16;10458775;28;20029;-71
2021/12/21 00:51:38;;;;;;;14.20;9.98;;;;;;;-0.94;95.21;102868.50;10457969;28;20044;-71
2021/12/21 00:56:39;;;;;;;25.50;11.02;;;;;;;-0.92;94.66;102868.44;10460353;28;20029;-72
2021/12/21 01:01:41;;;;;;;21.13;11.60;;;;;;;-0.91;94.87;102861.31;10456941;28;20120;-72
2021/12/21 01:06:48;;;;;;;19.70;10.68;;;;;;;-0.92;94.48;102863.13;10456255;28;20032;-71
2021/12/21 01:11:53;;;;;;;13.95;10.57;;;;;;;-0.92;95.00;102857.81;10457121;28;20041;-71
2021/12/21 01:38:04;;;;;;;19.40;11.32;;;;;;;-1.19;94.30;102852.84;10456356;28;20040;-70
2021/12/21 01:43:15;;;;;;;23.83;11.70;;;;;;;-1.19;94.60;102850.19;10469666;28;20370;-70
2021/12/21 01:53:35;;;;;;;32.75;12.75;;;;;;;-1.30;92.19;102844.53;10456635;28;20029;-70
2021/12/21 01:58:37;;;;;;;27.90;11.65;;;;;;;-1.35;91.59;102840.38;10455972;28;20072;-70
2021/12/21 02:03:37;;;;;;;12.77;9.77;;;;;;;-1.38;90.99;102835.22;10472505;28;20361;-70
2021/12/21 02:08:38;;;;;;;22.75;11.27;;;;;;;-1.42;92.03;102829.19;10456497;28;20041;-70
2021/12/21 02:13:43;;;;;;;14.98;10.50;;;;;;;-1.33;92.51;102822.56;10455686;28;20065;-71
2021/12/21 02:18:53;;;;;;;25.25;10.05;;;;;;;-1.24;93.46;102836.28;10464065;28;20112;-71
2021/12/21 02:23:57;;;;;;;27.67;11.10;;;;;;;-1.32;93.04;102833.13;10464723;28;20476;-72
2021/12/21 02:29:10;;;;;;;24.77;12.15;;;;;;;-1.38;92.36;102827.22;10478640;28;20052;-72
2021/12/21 02:34:11;;;;;;;16.42;10.30;;;;;;;-1.43;91.66;102822.16;10463602;28;20116;-71
2021/12/21 02:39:11;;;;;;;21.35;11.50;;;;;;;-1.52;90.14;102833.22;10462954;28;20102;-71
2021/12/21 02:44:12;;;;;;;22.95;10.95;;;;;;;-1.55;90.57;102826.22;10462243;28;20041;-71
2021/12/21 02:49:13;;;;;;;20.25;10.88;;;;;;;-1.54;91.73;102830.59;10461089;28;20083;-71
2021/12/21 02:54:13;;;;;;;16.65;9.45;;;;;;;-1.49;92.29;102825.09;10462291;28;20037;-72
2021/12/21 02:59:14;;;;;;;14.10;10.15;;;;;;;-1.53;91.75;102827.03;10444756;28;20094;-72
2021/12/21 03:04:14;;;;;;;27.30;11.18;;;;;;;-1.56;91.71;102827.19;10462579;28;20033;-73
2021/12/21 03:14:24;;;;;;;16.27;9.77;;;;;;;-1.57;91.86;102829.88;10464339;28;20032;-73
2021/12/21 03:19:25;;;;;;;25.27;12.45;;;;;;;-1.62;92.00;102830.13;10461682;28;20091;-72
2021/12/21 03:24:25;;;;;;;26.58;11.13;;;;;;;-1.70;90.45;102829.59;10460611;28;20071;-72
2021/12/21 03:29:26;;;;;;;19.17;9.95;;;;;;;-1.76;90.77;102820.09;10460151;28;20049;-72
2021/12/21 03:34:26;;;;;;;27.92;11.05;;;;;;;-1.75;91.30;102829.81;10459786;28;20036;-72
2021/12/21 03:39:27;;;;;;;15.02;9.80;;;;;;;-1.65;92.48;102815.19;10460709;28;20033;-72
2021/12/21 03:44:27;;;;;;;21.55;9.90;;;;;;;-1.59;93.05;102821.16;10460314;28;20103;-72
2021/12/21 03:54:33;;;;;;;15.85;9.90;;;;;;;-1.62;92.53;102808.88;10475040;28;20492;-72
2021/12/21 03:59:34;;;;;;;18.42;10.77;;;;;;;-1.56;93.82;102807.69;10460391;28;20037;-72
2021/12/21 04:04:34;;;;;;;14.88;10.40;;;;;;;-1.62;93.84;102795.59;10458573;28;20167;-73
2021/12/21 04:09:35;;;;;;;26.60;9.82;;;;;;;-1.75;92.10;102797.94;10459985;28;20366;-73
2021/12/21 04:14:36;;;;;;;19.23;11.15;;;;;;;-1.85;91.81;102794.00;10459514;28;20112;-72
2021/12/21 04:19:36;;;;;;;16.02;9.60;;;;;;;-1.91;92.09;102787.16;10459534;28;20033;-74
2021/12/21 04:24:37;;;;;;;21.70;10.70;;;;;;;-1.78;93.49;102778.66;10459275;28;20041;-73
2021/12/21 04:29:37;;;;;;;24.55;11.80;;;;;;;-1.77;93.19;102785.66;10461121;28;20056;-73
2021/12/21 04:34:38;;;;;;;23.10;9.90;;;;;;;-1.83;92.47;102775.31;10460824;28;20048;-73
2021/12/21 04:39:44;;;;;;;14.10;10.23;;;;;;;-1.99;91.11;102788.44;10473765;28;20409;-71
2021/12/21 04:44:44;;;;;;;24.02;10.50;;;;;;;-2.13;90.10;102789.94;10472290;28;20396;-73
2021/12/21 04:49:45;;;;;;;16.58;9.77;;;;;;;-2.12;90.90;102791.66;10457853;28;20033;-73
2021/12/21 04:54:45;;;;;;;15.00;11.20;;;;;;;-2.15;90.94;102785.63;10456082;28;20068;-73
2021/12/21 04:59:46;;;;;;;16.88;9.75;;;;;;;-2.19;90.86;102790.19;10457506;28;20072;-73
2021/12/21 05:04:46;;;;;;;15.05;10.07;;;;;;;-2.23;90.37;102788.63;10457506;28;20384;-72
2021/12/21 05:09:55;;;;;;;27.50;10.95;;;;;;;-2.28;90.11;102777.34;10457123;28;20025;-73
2021/12/21 05:14:55;;;;;;;17.63;10.15;;;;;;;-2.26;90.59;102778.16;10455565;28;20039;-73
2021/12/21 05:19:56;;;;;;;18.45;9.10;;;;;;;-2.12;91.91;102775.72;10456988;28;20029;-74
2021/12/21 05:24:56;;;;;;;19.40;12.10;;;;;;;-2.23;90.72;102780.66;10457323;28;20076;-73
2021/12/21 05:29:57;;;;;;;21.88;12.27;;;;;;;-2.11;92.43;102781.88;10455941;28;20128;-73
2021/12/21 05:34:57;;;;;;;20.05;12.10;;;;;;;-2.09;91.82;102776.53;10456264;28;20069;-74
2021/12/21 05:40:09;;;;;;;17.05;9.77;;;;;;;-2.15;90.89;102773.19;10403632;28;20049;-76
2021/12/21 05:45:10;;;;;;;28.20;12.15;;;;;;;-2.16;92.42;102775.94;10455643;28;20033;-76
2021/12/21 05:50:15;;;;;;;39.33;13.85;;;;;;;-2.04;93.14;102775.38;10471266;28;20108;-75
2021/12/21 05:55:16;;;;;;;24.55;13.48;;;;;;;-2.00;92.58;102774.31;10456284;28;20032;-73
2021/12/21 06:00:20;;;;;;;28.08;13.57;;;;;;;-2.01;92.72;102777.91;10455937;28;20040;-75
2021/12/21 06:05:21;;;;;;;29.13;13.30;;;;;;;-2.17;92.13;102782.16;10456034;28;20039;-75
2021/12/21 06:10:37;;;;;;;20.77;11.77;;;;;;;-2.25;90.58;102795.78;10451065;28;20468;-74
2021/12/21 06:26:17;;;;;;;18.90;11.77;;;;;;;-2.52;90.77;102781.06;10454523;28;20037;-75
2021/12/21 06:31:18;;;;;;;23.63;14.30;;;;;;;-2.47;91.39;102781.75;10470729;28;20119;-75
2021/12/21 06:36:18;;;;;;;25.13;14.88;;;;;;;-2.41;91.79;102782.31;10454998;28;20036;-75
2021/12/21 06:41:19;;;;;;;29.67;15.90;;;;;;;-2.29;92.75;102786.25;10454284;28;20041;-75
2021/12/21 06:51:35;;;;;;;24.02;14.88;;;;;;;-2.35;92.07;102783.84;10455328;28;20476;-75
2021/12/21 06:56:35;;;;;;;19.77;15.52;;;;;;;-2.31;92.11;102777.47;10453614;28;20040;-74
2021/12/21 07:01:38;;;;;;;24.58;15.93;;;;;;;-2.24;93.82;102781.56;10452839;28;20373;-75
2021/12/21 07:06:39;;;;;;;23.08;15.13;;;;;;;-2.26;93.48;102783.44;10460961;28;20072;-75
2021/12/21 07:11:45;;;;;;;31.10;16.45;;;;;;;-2.25;94.14;102779.00;10460490;28;20055;-75
2021/12/21 07:22:05;;;;;;;33.85;17.00;;;;;;;-2.32;92.46;102781.06;10474735;28;20397;-75
2021/12/21 07:27:06;;;;;;;24.25;15.85;;;;;;;-2.24;93.83;102783.38;10476225;28;20029;-75
2021/12/21 07:32:06;;;;;;;31.55;16.73;;;;;;;-2.14;95.37;102792.63;10477617;28;20477;-75
2021/12/21 07:37:09;;;;;;;41.03;18.90;;;;;;;-2.04;94.84;102793.97;10460454;28;20033;-75
2021/12/21 07:42:10;;;;;;;32.53;18.75;;;;;;;-1.99;96.33;102793.75;10463804;28;20111;-76
2021/12/21 07:47:10;;;;;;;28.08;18.40;;;;;;;-2.04;95.35;102782.47;10467623;28;20032;-75
2021/12/21 07:52:11;;;;;;;20.65;15.43;;;;;;;-2.08;96.78;102791.50;10459316;28;20033;-75
2021/12/21 07:57:11;;;;;;;30.52;17.58;;;;;;;-1.92;97.42;102793.38;10459483;28;20041;-75
2021/12/21 08:02:12;;;;;;;34.78;19.73;;;;;;;-1.72;97.29;102800.47;10459187;28;20025;-75
2021/12/21 08:07:17;;;;;;;30.05;18.23;;;;;;;-1.74;95.49;102799.66;10458450;28;20479;-75
2021/12/21 08:12:18;;;;;;;28.33;15.77;;;;;;;-1.77;94.63;102814.88;10474264;28;20037;-74
2021/12/21 08:17:19;;;;;;;27.73;15.63;;;;;;;-1.50;96.64;102820.69;10459305;28;20036;-75
2021/12/21 08:22:19;;;;;;;29.52;17.95;;;;;;;-1.09;99.13;102821.38;10474672;28;20029;-75
2021/12/21 08:27:19;;;;;;;28.67;18.10;;;;;;;-0.67;99.15;102827.31;10458750;28;20033;-74
2021/12/21 08:32:20;;;;;;;33.75;20.33;;;;;;;-0.16;99.99;102829.13;10459388;28;20088;-75
2021/12/21 08:37:20;;;;;;;26.35;22.83;;;;;;;0.14;100.00;102839.94;10458473;28;20037;-75
2021/12/21 08:42:21;;;;;;;43.70;27.23;;;;;;;0.36;100.00;102826.31;10457865;28;20037;-74
2021/12/21 08:47:22;;;;;;;56.33;32.05;;;;;;;0.51;100.00;102824.63;10457439;28;20111;-74
2021/12/21 08:52:23;;;;;;;37.13;27.83;;;;;;;0.68;100.00;102816.53;10457998;28;20033;-75
2021/12/21 08:57:23;;;;;;;49.35;30.13;;;;;;;0.87;100.00;102804.84;10458027;28;20110;-75
2021/12/21 09:02:24;;;;;;;63.30;30.98;;;;;;;1.00;100.00;102805.84;10458060;28;20041;-77
2021/12/21 09:07:24;;;;;;;51.95;33.67;;;;;;;1.12;100.00;102805.13;10457490;28;20029;-77
2021/12/21 09:12:24;;;;;;;41.67;29.02;;;;;;;1.29;100.00;102811.28;10458351;28;20060;-79
2021/12/21 09:17:25;;;;;;;36.92;28.90;;;;;;;1.40;100.00;102819.50;10458082;28;20060;-80
2021/12/21 09:22:25;;;;;;;50.15;25.65;;;;;;;1.57;100.00;102816.72;10456236;28;20120;-80
2021/12/21 09:27:26;;;;;;;33.67;23.63;;;;;;;1.68;100.00;102812.53;10456879;28;20437;-79
2021/12/21 09:32:26;;;;;;;37.85;25.17;;;;;;;1.85;100.00;102812.34;10472648;28;20044;-80
2021/12/21 09:37:27;;;;;;;22.73;17.65;;;;;;;1.91;100.00;102806.63;10458897;28;20457;-79
2021/12/21 09:42:28;;;;;;;32.40;19.65;;;;;;;1.03;100.00;102796.81;10457620;28;20537;-79
2021/12/21 09:47:29;;;;;;;33.78;19.80;;;;;;;0.56;100.00;102803.03;10472674;28;20116;-79
2021/12/21 09:52:29;;;;;;;33.03;21.65;;;;;;;0.52;100.00;102805.00;10457798;28;20127;-80
2021/12/21 09:57:30;;;;;;;38.15;18.65;;;;;;;0.50;100.00;102808.69;10481777;28;20107;-80
2021/12/21 10:02:33;;;;;;;31.15;18.05;;;;;;;0.49;100.00;102807.00;10482184;28;20021;-80
2021/12/21 10:07:34;;;;;;;35.03;17.08;;;;;;;0.50;99.85;102814.03;10461718;28;20094;-79
2021/12/21 10:12:40;;;;;;;33.70;19.27;;;;;;;0.45;100.00;102808.97;10456751;28;20041;-80
2021/12/21 10:17:54;;;;;;;30.35;19.50;;;;;;;0.98;100.00;102799.72;10454533;28;20032;-80
2021/12/21 10:22:54;;;;;;;33.85;19.48;;;;;;;1.37;100.00;102803.69;10438718;28;20090;-80
2021/12/21 10:27:55;;;;;;;24.77;18.05;;;;;;;1.79;100.00;102807.41;10456039;28;20037;-79
2021/12/21 10:32:55;;;;;;;27.83;18.88;;;;;;;2.65;100.00;102785.94;10456824;28;20084;-79
2021/12/21 10:37:56;;;;;;;26.65;16.92;;;;;;;2.50;100.00;102772.63;10459536;28;20056;-78
2021/12/21 10:43:01;;;;;;;33.25;17.55;;;;;;;3.19;100.00;102761.84;10462267;28;20468;-79
2021/12/21 10:48:03;;;;;;;23.33;15.80;;;;;;;3.80;100.00;102756.78;10463260;28;20029;-79
2021/12/21 10:53:04;;;;;;;14.43;12.82;;;;;;;4.07;100.00;102759.34;10461471;28;20477;-78
2021/12/21 10:58:17;;;;;;;28.52;12.68;;;;;;;2.76;100.00;102765.56;10478124;28;20050;-78
2021/12/21 11:03:27;;;;;;;15.27;12.07;;;;;;;1.98;97.79;102775.94;10462715;28;20052;-77
2021/12/21 11:08:28;;;;;;;28.63;11.95;;;;;;;1.69;98.07;102779.53;10476228;28;20417;-78
2021/12/21 11:13:28;;;;;;;18.02;11.65;;;;;;;1.57;98.17;102760.66;10460564;28;20068;-78
2021/12/21 11:18:29;;;;;;;24.27;13.82;;;;;;;1.54;98.05;102751.97;10462047;28;20090;-78
2021/12/21 11:23:29;;;;;;;19.50;13.07;;;;;;;1.52;98.16;102754.72;10462537;28;20556;-77
2021/12/21 11:28:35;;;;;;;12.73;10.32;;;;;;;1.52;98.88;102749.38;10460594;28;20053;-78
2021/12/21 11:33:41;;;;;;;17.80;11.63;;;;;;;1.36;98.23;102753.91;10461407;28;20102;-77
2021/12/21 11:38:42;;;;;;;23.60;12.60;;;;;;;1.45;99.86;102737.34;10460885;28;20389;-77
2021/12/21 11:44:33;;;;;;;23.55;11.27;;;;;;;1.42;100.00;102729.53;10460063;28;20036;-77
2021/12/21 11:49:38;;;;;;;15.43;10.88;;;;;;;1.48;99.54;102720.28;10433464;28;20080;-77
2021/12/21 11:54:52;;;;;;;19.98;11.43;;;;;;;1.60;99.51;102714.22;10460240;28;20128;-76
2021/12/21 11:59:53;;;;;;;27.50;13.25;;;;;;;1.63;99.49;102717.53;10458644;28;20120;-77
2021/12/21 12:04:57;;;;;;;14.90;9.80;;;;;;;3.32;100.00;102709.22;10459025;28;20037;-77
2021/12/21 12:10:11;;;;;;;15.10;8.82;;;;;;;4.54;100.00;102712.97;10474706;28;20384;-76
2021/12/21 12:15:14;;;;;;;10.52;8.02;;;;;;;5.06;100.00;102709.03;10466339;28;20033;-77
2021/12/21 12:20:16;;;;;;;11.88;8.10;;;;;;;5.67;100.00;102699.88;10486622;28;20036;-78
2021/12/21 12:25:19;;;;;;;10.57;7.70;;;;;;;6.04;100.00;102697.84;10458276;28;20060;-77
2021/12/21 12:30:27;;;;;;;13.70;7.85;;;;;;;6.34;100.00;102685.56;10459178;28;20049;-77
2021/12/21 12:35:32;;;;;;;10.68;7.57;;;;;;;6.44;100.00;102683.81;10459132;28;20067;-77
2021/12/21 12:40:56;;;;;;;8.88;6.13;;;;;;;6.55;100.00;102678.41;10458524;28;20064;-77
2021/12/21 12:46:04;;;;;;;7.60;6.10;;;;;;;6.61;100.00;102674.38;10456583;28;20025;-77
2021/12/21 12:51:05;;;;;;;8.18;6.43;;;;;;;6.49;100.00;102666.31;10456992;28;20095;-76
2021/12/21 12:56:07;;;;;;;11.20;4.97;;;;;;;6.33;100.00;102659.66;10458112;28;20029;-77
2021/12/21 13:01:25;;;;;;;8.23;5.53;;;;;;;5.63;100.00;102669.72;10472846;28;20033;-77
2021/12/21 13:06:30;;;;;;;13.25;5.43;;;;;;;4.89;100.00;102666.53;10456053;28;20102;-76
2021/12/21 13:11:31;;;;;;;5.72;5.00;;;;;;;4.59;100.00;102665.19;10456915;28;20435;-76
2021/12/21 13:16:33;;;;;;;10.40;5.82;;;;;;;4.62;100.00;102669.47;10455419;28;20230;-76
2021/12/21 13:21:36;;;;;;;6.15;4.63;;;;;;;4.10;100.00;102658.09;10457107;28;20037;-75
2021/12/21 13:26:50;;;;;;;9.23;5.22;;;;;;;3.71;99.40;102660.00;10457222;28;20527;-76
2021/12/21 13:31:53;;;;;;;11.70;4.82;;;;;;;3.89;100.00;102654.28;10455120;28;20053;-75
2021/12/21 13:36:55;;;;;;;7.03;4.88;;;;;;;3.90;100.00;102653.34;10456480;28;20037;-74
2021/12/21 13:42:14;;;;;;;10.75;4.53;;;;;;;3.84;100.00;102646.59;10455739;28;20033;-73
2021/12/21 13:47:25;;;;;;;3.78;3.40;;;;;;;3.48;99.20;102650.09;10453936;28;20234;-73
2021/12/21 13:52:28;;;;;;;3.95;3.55;;;;;;;3.43;98.98;102649.53;10456657;28;20056;-72
2021/12/21 13:57:29;;;;;;;13.70;4.80;;;;;;;3.45;100.00;102659.19;10454247;28;20037;-73
2021/12/21 14:02:34;;;;;;;7.20;3.15;;;;;;;3.70;100.00;102655.63;10455368;28;20036;-73
2021/12/21 14:07:44;;;;;;;2.88;2.67;;;;;;;3.64;100.00;102653.38;10455442;28;20037;-73
2021/12/21 14:12:59;;;;;;;7.13;4.85;;;;;;;3.40;100.00;102657.78;10441981;28;20033;-73
2021/12/21 14:17:59;;;;;;;6.53;4.05;;;;;;;3.36;100.00;102656.28;10479161;28;20037;-73
2021/12/21 14:22:59;;;;;;;9.43;4.90;;;;;;;3.50;100.00;102658.84;10463536;28;20033;-73
2021/12/21 14:28:08;;;;;;;6.45;5.75;;;;;;;3.47;100.00;102654.56;10463050;28;20495;-73
2021/12/21 14:33:21;;;;;;;5.43;4.82;;;;;;;3.43;100.00;102671.81;10450708;28;20057;-73
2021/12/21 14:38:22;;;;;;;8.38;5.60;;;;;;;3.51;100.00;102676.66;10468978;28;20517;-73
2021/12/21 14:43:27;;;;;;;12.48;5.45;;;;;;;3.45;100.00;102661.88;10462300;28;20047;-73
2021/12/21 14:48:28;;;;;;;12.45;6.07;;;;;;;3.43;100.00;102674.50;10462710;28;20037;-73
2021/12/21 14:53:39;;;;;;;13.43;6.75;;;;;;;3.13;99.95;102656.06;10462311;28;20033;-73
2021/12/21 14:58:39;;;;;;;13.77;6.55;;;;;;;2.91;99.30;102656.69;10462438;28;20044;-73
2021/12/21 15:03:40;;;;;;;16.95;7.65;;;;;;;2.67;98.09;102655.66;10461914;28;20037;-73
2021/12/21 15:08:40;;;;;;;8.95;6.35;;;;;;;2.42;98.75;102651.94;10461694;28;20060;-73
2021/12/21 15:13:41;;;;;;;8.23;6.22;;;;;;;2.18;98.39;102666.94;10460700;28;20067;-73
2021/12/21 15:18:41;;;;;;;18.15;6.53;;;;;;;2.05;98.61;102667.72;10476743;28;20044;-73
2021/12/21 15:23:42;;;;;;;11.45;6.88;;;;;;;1.89;97.77;102669.66;10459873;28;20049;-73
2021/12/21 15:28:42;;;;;;;9.75;7.68;;;;;;;1.72;98.13;102667.16;10460741;28;20115;-73
2021/12/21 15:33:42;;;;;;;22.80;8.02;;;;;;;1.68;98.45;102669.19;10461284;28;20025;-73
2021/12/21 15:38:43;;;;;;;19.98;7.88;;;;;;;1.55;98.17;102674.44;10461265;28;20032;-75
2021/12/21 15:43:43;;;;;;;14.45;8.73;;;;;;;1.52;97.93;102674.63;10460495;28;20043;-73
2021/12/21 15:48:44;;;;;;;12.50;7.65;;;;;;;1.38;97.59;102682.63;10460753;28;20078;-75
2021/12/21 15:53:45;;;;;;;19.42;8.13;;;;;;;1.23;96.51;102684.41;10459797;28;20396;-73
2021/12/21 15:58:45;;;;;;;11.30;8.80;;;;;;;1.09;96.87;102681.72;10459948;28;20158;-73
2021/12/21 16:03:47;;;;;;;14.48;8.05;;;;;;;1.03;97.23;102677.63;10459602;28;20048;-73
2021/12/21 16:08:47;;;;;;;12.45;7.63;;;;;;;0.90;97.15;102676.63;10459876;28;20037;-73
2021/12/21 16:13:48;;;;;;;13.77;9.63;;;;;;;0.69;97.74;102673.41;10459655;28;20029;-74
2021/12/21 16:18:48;;;;;;;21.45;10.82;;;;;;;0.68;98.49;102679.69;10459178;28;20037;-72
2021/12/21 16:23:48;;;;;;;15.95;10.15;;;;;;;0.65;98.86;102678.06;10460139;28;20078;-73
2021/12/21 16:28:49;;;;;;;18.80;10.90;;;;;;;0.58;98.20;102676.72;10459069;28;20059;-73
2021/12/21 16:33:50;;;;;;;18.45;12.52;;;;;;;0.59;98.26;102683.75;10457743;28;20044;-72
2021/12/21 16:38:51;;;;;;;23.70;12.98;;;;;;;0.58;97.89;102690.03;10457462;28;20052;-73
2021/12/21 16:44:00;;;;;;;17.52;11.13;;;;;;;0.46;98.23;102693.41;10458053;28;20057;-73
2021/12/21 16:49:00;;;;;;;24.08;11.00;;;;;;;0.37;98.25;102691.25;10461559;28;20033;-72
2021/12/21 16:54:00;;;;;;;22.05;13.40;;;;;;;0.41;98.16;102695.47;10461678;28;20029;-73
2021/12/21 16:59:02;;;;;;;31.48;14.27;;;;;;;0.31;96.28;102703.13;10459024;28;20033;-73
2021/12/21 17:04:03;;;;;;;17.08;11.45;;;;;;;0.15;96.02;102711.09;10456321;28;20032;-73
2021/12/21 17:09:04;;;;;;;20.80;12.82;;;;;;;0.07;95.45;102718.69;10456040;28;20072;-73
2021/12/21 17:14:05;;;;;;;20.23;14.20;;;;;;;-0.13;95.37;102716.22;10456382;28;20043;-73
2021/12/21 17:19:05;;;;;;;23.15;14.80;;;;;;;-0.22;94.70;102708.75;10456420;28;20033;-73
2021/12/21 17:24:06;;;;;;;27.67;15.13;;;;;;;-0.27;95.75;102709.84;10456617;28;20440;-73
2021/12/21 17:29:06;;;;;;;17.95;13.18;;;;;;;-0.38;94.99;102706.03;10456359;28;20140;-73
2021/12/21 17:34:07;;;;;;;17.92;15.25;;;;;;;-0.55;95.29;102713.13;10456425;28;20040;-74
2021/12/21 17:39:08;;;;;;;24.15;14.77;;;;;;;-0.62;95.58;102697.56;10456539;28;20029;-72
2021/12/21 17:44:08;;;;;;;21.98;14.35;;;;;;;-0.65;96.02;102706.56;10456463;28;20041;-74
2021/12/21 17:49:08;;;;;;;21.27;14.65;;;;;;;-0.61;97.41;102707.25;10454968;28;20496;-73
2021/12/21 17:54:09;;;;;;;22.67;15.85;;;;;;;-0.72;95.53;102719.34;10473178;28;20041;-72
2021/12/21 17:59:09;;;;;;;24.63;15.43;;;;;;;-0.85;95.06;102712.94;10456097;28;20547;-71
2021/12/21 18:04:10;;;;;;;23.45;15.70;;;;;;;-0.84;95.58;102709.31;10456208;28;20041;-72
2021/12/21 18:09:10;;;;;;;19.25;15.88;;;;;;;-0.83;95.89;102705.75;10455304;28;20499;-72
2021/12/21 18:14:13;;;;;;;26.65;17.33;;;;;;;-0.74;96.86;102715.03;10454780;28;20063;-73
2021/12/21 18:19:13;;;;;;;30.88;18.95;;;;;;;-0.73;95.90;102706.13;10456350;28;20040;-72
2021/12/21 18:24:16;;;;;;;40.25;20.42;;;;;;;-0.75;97.00;102708.84;10455727;28;20393;-72
2021/12/21 18:29:17;;;;;;;27.90;20.17;;;;;;;-0.74;97.59;102709.72;10454986;28;20053;-73
2021/12/21 18:34:17;;;;;;;30.17;19.95;;;;;;;-0.75;96.99;102713.31;10455656;28;20103;-72
2021/12/21 18:39:20;;;;;;;31.30;19.98;;;;;;;-0.79;96.77;102711.75;10455396;28;20080;-72
2021/12/21 18:44:20;;;;;;;36.10;19.92;;;;;;;-0.87;96.60;102714.78;10454957;28;20033;-72
2021/12/21 18:49:21;;;;;;;31.08;21.27;;;;;;;-0.82;97.22;102712.78;10455850;28;20041;-72
2021/12/21 18:54:21;;;;;;;31.50;20.35;;;;;;;-0.79;96.60;102719.75;10456050;28;20037;-72
2021/12/21 18:59:22;;;;;;;39.03;21.20;;;;;;;-0.85;95.81;102714.75;10459608;28;20064;-72
2021/12/21 19:04:22;;;;;;;40.88;23.88;;;;;;;-0.92;96.04;102705.34;10463966;28;20101;-72
2021/12/21 19:09:23;;;;;;;38.00;23.48;;;;;;;-0.99;96.30;102705.66;10481250;28;20451;-73
2021/12/21 19:14:23;;;;;;;53.63;25.25;;;;;;;-1.03;95.48;102708.53;10465340;28;20041;-72
2021/12/21 19:19:23;;;;;;;35.35;25.00;;;;;;;-1.07;95.80;102707.00;10462104;28;20041;-72
2021/12/21 19:24:24;;;;;;;52.90;24.90;;;;;;;-1.10;96.06;102718.63;10461638;28;20033;-72
2021/12/21 19:29:24;;;;;;;53.45;29.90;;;;;;;-1.12;96.08;102720.50;10461295;28;20511;-72
2021/12/21 19:34:26;;;;;;;52.15;31.10;;;;;;;-1.12;96.12;102715.19;10476445;28;20477;-72
2021/12/21 19:39:27;;;;;;;55.17;34.67;;;;;;;-1.14;96.56;102721.53;10458793;28;20438;-72
2021/12/21 19:44:28;;;;;;;57.03;33.95;;;;;;;-1.18;95.82;102720.84;10459697;28;20095;-72
2021/12/21 19:49:29;;;;;;;54.53;31.60;;;;;;;-1.18;96.11;102724.34;10459804;28;20374;-72
2021/12/21 19:54:30;;;;;;;49.63;29.42;;;;;;;-1.19;95.71;102725.25;10459243;28;20036;-72
2021/12/21 19:59:31;;;;;;;49.97;31.30;;;;;;;-1.18;95.80;102726.16;10459643;28;20033;-72
2021/12/21 20:04:31;;;;;;;40.55;26.73;;;;;;;-1.21;96.92;102724.50;10460654;28;20120;-73
2021/12/21 20:09:32;;;;;;;50.40;29.77;;;;;;;-1.23;96.51;102723.69;10460884;28;20076;-73
2021/12/21 20:14:33;;;;;;;33.85;26.13;;;;;;;-1.25;97.10;102728.22;10459781;28;20047;-72
2021/12/21 20:19:36;;;;;;;49.55;27.80;;;;;;;-1.28;97.03;102725.72;10459633;28;20039;-72
2021/12/21 20:24:36;;;;;;;49.05;29.80;;;;;;;-1.34;96.74;102709.22;10458851;28;20103;-72
2021/12/21 20:29:37;;;;;;;49.55;30.05;;;;;;;-1.41;96.49;102709.50;10458617;28;20114;-72
2021/12/21 20:34:37;;;;;;;50.22;28.63;;;;;;;-1.48;96.53;102712.56;10458692;28;20040;-72
2021/12/21 20:39:38;;;;;;;45.33;28.48;;;;;;;-1.46;97.68;102719.53;10458580;28;20115;-73
2021/12/21 20:44:38;;;;;;;49.38;29.40;;;;;;;-1.47;97.42;102723.13;10473258;28;20455;-70
2021/12/21 20:49:39;;;;;;;36.05;28.15;;;;;;;-1.52;96.31;102719.81;10473287;28;20037;-72
2021/12/21 20:54:39;;;;;;;53.08;33.83;;;;;;;-1.55;96.52;102711.13;10473487;28;20056;-72
2021/12/21 20:59:40;;;;;;;45.92;28.63;;;;;;;-1.57;96.37;102713.84;10457774;28;20041;-72
2021/12/21 21:04:40;;;;;;;42.83;30.02;;;;;;;-1.62;95.79;102717.69;10456010;28;20041;-72
2021/12/21 21:09:41;;;;;;;52.25;31.48;;;;;;;-1.69;96.19;102725.94;10457508;28;20033;-72
2021/12/21 21:14:41;;;;;;;49.55;32.67;;;;;;;-1.66;95.98;102714.28;10456938;28;20499;-72
2021/12/21 21:19:41;;;;;;;49.00;31.73;;;;;;;-1.66;96.61;102716.94;10457717;28;20439;-73
2021/12/21 21:24:43;;;;;;;44.03;27.30;;;;;;;-1.69;96.36;102717.97;10459288;28;20040;-73
2021/12/21 21:29:43;;;;;;;46.13;28.52;;;;;;;-1.71;96.49;102703.06;10474433;28;20049;-72
2021/12/21 21:34:44;;;;;;;41.90;27.13;;;;;;;-1.75;96.39;102698.81;10471161;28;20040;-72
2021/12/21 21:39:44;;;;;;;34.88;28.17;;;;;;;-1.77;97.41;102706.84;10456488;28;20040;-72
2021/12/21 21:44:45;;;;;;;45.83;32.47;;;;;;;-1.82;96.79;102703.53;10455077;28;20072;-72
2021/12/21 21:49:45;;;;;;;41.53;26.88;;;;;;;-1.82;96.38;102708.84;10456141;28;20029;-72
2021/12/21 21:54:45;;;;;;;41.20;27.48;;;;;;;-1.85;96.80;102708.13;10456055;28;20037;-72
2021/12/21 21:59:46;;;;;;;43.25;28.20;;;;;;;-1.92;96.49;102699.59;10455188;28;20060;-72
2021/12/21 22:04:46;;;;;;;50.47;29.02;;;;;;;-2.01;96.17;102692.06;10455431;28;20477;-72
2021/12/21 22:09:47;;;;;;;47.92;28.75;;;;;;;-2.05;96.04;102696.66;10455788;28;20033;-72
2021/12/21 22:14:47;;;;;;;43.17;28.58;;;;;;;-2.10;95.31;102690.72;10455257;28;20041;-72
2021/12/21 22:19:48;;;;;;;41.65;27.40;;;;;;;-2.12;95.72;102687.28;10457571;28;20253;-72
2021/12/21 22:24:48;;;;;;;54.15;29.33;;;;;;;-2.17;96.18;102673.34;10456072;28;20515;-72
2021/12/21 22:29:48;;;;;;;37.25;27.27;;;;;;;-2.18;96.79;102668.97;10416868;28;20064;-71
2021/12/21 22:34:49;;;;;;;44.42;29.60;;;;;;;-2.22;97.15;102673.56;10505289;28;20526;-73
2021/12/21 22:39:49;;;;;;;46.08;29.48;;;;;;;-2.26;96.58;102671.16;10505388;28;20070;-71
2021/12/21 22:44:50;;;;;;;56.53;32.08;;;;;;;-2.27;96.07;102672.06;10507796;28;20456;-72
2021/12/21 22:49:50;;;;;;;40.42;30.58;;;;;;;-2.29;95.99;102671.28;10504243;28;20120;-72
2021/12/21 22:54:50;;;;;;;43.58;30.30;;;;;;;-2.32;95.87;102669.63;10503181;28;20399;-72
2021/12/21 22:59:51;;;;;;;39.78;28.98;;;;;;;-2.36;96.41;102666.25;10486321;28;20044;-73
2021/12/21 23:04:53;;;;;;;50.75;31.45;;;;;;;-2.38;95.96;102667.25;10503915;28;20043;-73
2021/12/21 23:09:53;;;;;;;36.92;28.35;;;;;;;-2.43;95.90;102667.44;10503707;28;20035;-73
2021/12/21 23:14:54;;;;;;;42.20;29.60;;;;;;;-2.34;96.43;102679.44;10501762;28;20063;-73
2021/12/21 23:19:55;;;;;;;45.35;28.15;;;;;;;-1.62;93.21;102681.34;10501903;28;20028;-73
2021/12/21 23:24:55;;;;;;;37.50;27.95;;;;;;;-1.62;92.72;102676.03;10503351;28;20044;-73
2021/12/21 23:29:56;;;;;;;43.67;27.13;;;;;;;-1.59;91.92;102672.38;10502725;28;20114;-73
2021/12/21 23:34:56;;;;;;;37.58;28.30;;;;;;;-1.59;92.06;102681.22;10518262;28;20033;-74
2021/12/21 23:39:56;;;;;;;51.45;28.88;;;;;;;-1.65;91.20;102681.50;10504547;28;20079;-73
2021/12/21 23:44:57;;;;;;;44.40;28.98;;;;;;;-1.64;92.10;102680.56;10505359;28;20028;-73